Time;durP1;ratioP1;P1;durP2;ratioP2;P2;SDS_P1;SDS_P2;PMS_P1;PMS_P2;Temp;Humidity;BMP_temperature;BMP_pressure;BME280_temperature;BME280_humidity;BME280_pressure;Samples;Min_cycle;Max_cycle;Signal;HPM_P1;HPM_P2
2021/08/08 00:01:24;;;;;;;1.9;1;;;;;;;16.52;89.66504;934.4867;;;;
2021/08/08 00:03:54;;;;;;;0.4;0.4;;;;;;;16.43;90.00488;934.5561;;;;
2021/08/08 00:06:18;;;;;;;0.8;0.3;;;;;;;16.41;89.26074;934.4774;;;;
2021/08/08 00:08:44;;;;;;;0.3;0.3;;;;;;;16.35;88.47461;934.3924;;;;
2021/08/08 00:11:09;;;;;;;0.4;0.4;;;;;;;16.28;88.95703;934.3142;;;;
2021/08/08 00:13:36;;;;;;;1.3;0.4;;;;;;;16.36;89.22656;934.3739;;;;
2021/08/08 00:16:05;;;;;;;0.3;0.3;;;;;;;16.28;89.11719;934.4099;;;;
2021/08/08 00:18:33;;;;;;;0.4;0.4;;;;;;;16.33;88.61914;934.4973;;;;
2021/08/08 00:20:58;;;;;;;0.3;0.3;;;;;;;16.4;88.74805;934.3546;;;;
2021/08/08 00:23:26;;;;;;;0.4;0.3;;;;;;;16.45;89.01367;934.4006;;;;
2021/08/08 00:25:51;;;;;;;1;0.9;;;;;;;16.32;89.07813;934.3159;;;;
2021/08/08 00:28:16;;;;;;;0.6;0.5;;;;;;;16.3;89.88672;934.3178;;;;
2021/08/08 00:30:41;;;;;;;0.8;0.6;;;;;;;16.46;89.46875;934.4486;;;;
2021/08/08 00:33:06;;;;;;;0.6;0.6;;;;;;;16.52;89.14355;934.4202;;;;
2021/08/08 00:35:32;;;;;;;1.1;0.7;;;;;;;16.54;88.84668;934.2766;;;;
2021/08/08 00:37:57;;;;;;;0.5;0.4;;;;;;;16.59;88.92676;934.294;;;;
2021/08/08 00:40:25;;;;;;;0.4;0.4;;;;;;;16.3;90.625;934.2899;;;;
2021/08/08 00:42:50;;;;;;;1.5;0.3;;;;;;;16.27;90.57324;934.2148;;;;
2021/08/08 00:45:16;;;;;;;0.7;0.4;;;;;;;16.39;89.91699;934.2117;;;;
2021/08/08 00:47:41;;;;;;;1.1;0.6;;;;;;;16.21;89.79883;934.4455;;;;
2021/08/08 00:50:10;;;;;;;0.6;0.5;;;;;;;16.04;91.64844;934.7071;;;;
2021/08/08 00:52:35;;;;;;;0.6;0.5;;;;;;;16;91.96484;934.8906;;;;
2021/08/08 00:55:01;;;;;;;1.4;0.5;;;;;;;15.97;92.48828;934.8453;;;;
2021/08/08 00:57:26;;;;;;;1.2;0.4;;;;;;;16.08;91.85449;934.7023;;;;
2021/08/08 00:59:51;;;;;;;0.7;0.5;;;;;;;16;92.19434;934.5132;;;;
2021/08/08 01:02:16;;;;;;;0.5;0.5;;;;;;;16.12;90.87891;934.4623;;;;
2021/08/08 01:04:41;;;;;;;0.8;0.4;;;;;;;16.22;90.12305;934.4311;;;;
2021/08/08 01:07:08;;;;;;;1;0.4;;;;;;;16.32;89.51855;934.4325;;;;
2021/08/08 01:09:33;;;;;;;0.7;0.5;;;;;;;16.19;89.59863;934.6755;;;;
2021/08/08 01:11:58;;;;;;;0.6;0.4;;;;;;;16.15;90.25781;934.7639;;;;
2021/08/08 01:14:23;;;;;;;0.3;0.3;;;;;;;16.25;89.48242;934.7751;;;;
2021/08/08 01:16:53;;;;;;;0.6;0.5;;;;;;;16.27;89.92578;934.8897;;;;
2021/08/08 01:19:18;;;;;;;0.4;0.4;;;;;;;16.41;89.1582;934.9056;;;;
2021/08/08 01:21:43;;;;;;;1.4;0.5;;;;;;;16.48;88.8916;934.8709;;;;
2021/08/08 01:24:09;;;;;;;0.4;0.4;;;;;;;16.53;88.77539;934.8908;;;;
2021/08/08 01:26:33;;;;;;;1.3;0.4;;;;;;;16.5;88.98828;934.6344;;;;
2021/08/08 01:28:59;;;;;;;0.8;0.6;;;;;;;16.42;88.11719;934.4235;;;;
2021/08/08 01:31:24;;;;;;;0.8;0.6;;;;;;;16.38;88.2832;934.5108;;;;
2021/08/08 01:33:50;;;;;;;0.5;0.5;;;;;;;16.43;88.62793;934.7072;;;;
2021/08/08 01:36:15;;;;;;;0.4;0.4;;;;;;;16.3;88.47363;934.9327;;;;
2021/08/08 01:38:40;;;;;;;0.5;0.5;;;;;;;16.3;89.45898;934.8964;;;;
2021/08/08 01:41:06;;;;;;;1.9;0.6;;;;;;;16.3;89.01855;934.7992;;;;
2021/08/08 01:43:31;;;;;;;1.2;0.6;;;;;;;16.37;89.59863;934.835;;;;
2021/08/08 01:46:03;;;;;;;0.9;0.4;;;;;;;16.19;91.05566;934.8876;;;;
2021/08/08 01:48:22;;;;;;;0.5;0.4;;;;;;;16.24;90.37109;934.7867;;;;
2021/08/08 01:50:47;;;;;;;0.2;0.2;;;;;;;16.18;90.07031;934.7505;;;;
2021/08/08 01:53:14;;;;;;;0.9;0.4;;;;;;;16.24;89.74609;934.7762;;;;
2021/08/08 01:55:39;;;;;;;0.8;0.6;;;;;;;16.24;89.53809;934.7568;;;;
2021/08/08 01:58:06;;;;;;;1.1;0.5;;;;;;;16.36;89.52734;934.8102;;;;
2021/08/08 02:00:31;;;;;;;0.7;0.5;;;;;;;16.29;90.0332;934.744;;;;
2021/08/08 02:02:58;;;;;;;0.9;0.4;;;;;;;16.26;90.23633;934.7919;;;;
2021/08/08 02:05:23;;;;;;;0.7;0.4;;;;;;;16.29;90.50781;934.7214;;;;
2021/08/08 02:07:49;;;;;;;1.6;0.7;;;;;;;16.3;89.82715;934.7928;;;;
2021/08/08 02:10:14;;;;;;;0.6;0.6;;;;;;;16.43;89.10449;934.7656;;;;
2021/08/08 02:12:41;;;;;;;1.8;0.7;;;;;;;16.48;88.39355;934.8669;;;;
2021/08/08 02:15:08;;;;;;;0.5;0.4;;;;;;;16.5;88.46875;934.8713;;;;
2021/08/08 02:17:31;;;;;;;1.1;0.6;;;;;;;16.56;88.23828;934.8147;;;;
2021/08/08 02:20:00;;;;;;;0.4;0.4;;;;;;;16.48;88.31348;934.838;;;;
2021/08/08 02:22:25;;;;;;;0.3;0.3;;;;;;;16.17;90.18262;934.7514;;;;
2021/08/08 02:24:50;;;;;;;0.8;0.4;;;;;;;16.08;91.19336;934.7394;;;;
2021/08/08 02:27:16;;;;;;;0.2;0.2;;;;;;;16.15;91.10449;934.865;;;;
2021/08/08 02:29:41;;;;;;;0.5;0.5;;;;;;;15.98;90.98926;934.829;;;;
2021/08/08 02:32:06;;;;;;;0.3;0.2;;;;;;;15.81;92.00391;934.9111;;;;
2021/08/08 02:34:32;;;;;;;0.4;0.3;;;;;;;16;91.00293;934.9011;;;;
2021/08/08 02:36:57;;;;;;;0.3;0.2;;;;;;;16.03;91.25293;934.8936;;;;
2021/08/08 02:39:22;;;;;;;0.4;0.4;;;;;;;16.12;90.76172;934.815;;;;
2021/08/08 02:41:49;;;;;;;1.1;0.4;;;;;;;16.13;90.26758;934.8599;;;;
2021/08/08 02:44:14;;;;;;;0.7;0.3;;;;;;;16.16;90.03027;934.9556;;;;
2021/08/08 02:46:40;;;;;;;0.6;0.3;;;;;;;16.19;89.80664;934.9872;;;;
2021/08/08 02:49:05;;;;;;;0.8;0.5;;;;;;;16.25;89.52832;934.9584;;;;
2021/08/08 02:51:30;;;;;;;0.9;0.4;;;;;;;16.32;89.14844;934.9604;;;;
2021/08/08 02:53:55;;;;;;;0.6;0.2;;;;;;;16.26;88.97461;934.9349;;;;
2021/08/08 02:56:23;;;;;;;1;0.4;;;;;;;16.13;89.66797;935.0195;;;;
2021/08/08 02:58:48;;;;;;;2.2;0.5;;;;;;;16.09;89.99219;935.0781;;;;
2021/08/08 03:01:14;;;;;;;0.6;0.5;;;;;;;16.08;90.06152;935.1457;;;;
2021/08/08 03:03:39;;;;;;;0.5;0.4;;;;;;;16.13;89.40039;935.1417;;;;
2021/08/08 03:06:05;;;;;;;0.3;0.3;;;;;;;16.05;89.76367;935.1359;;;;
2021/08/08 03:08:30;;;;;;;0.6;0.5;;;;;;;15.98;90.36328;935.2781;;;;
2021/08/08 03:10:58;;;;;;;1.1;0.5;;;;;;;15.87;90.84766;935.316;;;;
2021/08/08 03:13:23;;;;;;;1.3;0.7;;;;;;;15.89;91.4541;935.4402;;;;
2021/08/08 03:15:49;;;;;;;0.4;0.4;;;;;;;16;90.96875;935.4199;;;;
2021/08/08 03:18:14;;;;;;;0.4;0.4;;;;;;;16.03;90.81348;935.3812;;;;
2021/08/08 03:20:40;;;;;;;1.1;0.6;;;;;;;15.9;91.15527;935.3661;;;;
2021/08/08 03:23:05;;;;;;;0.8;0.6;;;;;;;15.93;91.11719;935.3478;;;;
2021/08/08 03:25:33;;;;;;;0.6;0.6;;;;;;;15.99;90.71191;935.3606;;;;
2021/08/08 03:27:58;;;;;;;0.7;0.6;;;;;;;16.09;89.54297;935.4444;;;;
2021/08/08 03:30:28;;;;;;;0.8;0.5;;;;;;;16.03;90.29395;935.4133;;;;
2021/08/08 03:32:53;;;;;;;0.6;0.6;;;;;;;16.13;90.31445;935.5257;;;;
2021/08/08 03:35:19;;;;;;;1.2;0.5;;;;;;;16.14;89.91113;935.585;;;;
2021/08/08 03:37:44;;;;;;;1.1;0.7;;;;;;;16.15;89.93652;935.5912;;;;
2021/08/08 03:40:15;;;;;;;0.8;0.5;;;;;;;16.21;89.99512;935.53;;;;
2021/08/08 03:42:41;;;;;;;1.6;0.6;;;;;;;16.15;89.93652;935.5647;;;;
2021/08/08 03:45:06;;;;;;;0.6;0.6;;;;;;;16.22;89.70605;935.5773;;;;
2021/08/08 03:47:33;;;;;;;0.5;0.5;;;;;;;16.35;89.16504;935.536;;;;
2021/08/08 03:49:58;;;;;;;0.5;0.5;;;;;;;16.33;88.9668;935.5483;;;;
2021/08/08 03:52:23;;;;;;;1;0.8;;;;;;;16.42;88.09375;935.5229;;;;
2021/08/08 03:54:48;;;;;;;0.5;0.5;;;;;;;16.42;88.46387;935.5045;;;;
2021/08/08 03:57:15;;;;;;;1.9;1;;;;;;;16.42;88.73047;935.6024;;;;
2021/08/08 03:59:40;;;;;;;1.3;0.9;;;;;;;16.48;88.31445;935.62;;;;
2021/08/08 04:02:29;;;;;;;1;0.7;;;;;;;16.34;89.18848;935.5578;;;;
2021/08/08 04:04:54;;;;;;;0.7;0.6;;;;;;;16.27;89.44141;935.5999;;;;
2021/08/08 04:07:21;;;;;;;0.9;0.5;;;;;;;16.1;90.56152;935.6242;;;;
2021/08/08 04:09:46;;;;;;;1.2;0.7;;;;;;;15.96;91.05371;935.699;;;;
2021/08/08 04:12:13;;;;;;;0.5;0.5;;;;;;;15.9;91.22461;935.8005;;;;
2021/08/08 04:14:38;;;;;;;0.3;0.3;;;;;;;15.82;91.46387;935.7864;;;;
2021/08/08 04:17:06;;;;;;;0.4;0.4;;;;;;;15.73;91.87109;935.7056;;;;
2021/08/08 04:19:34;;;;;;;0.5;0.3;;;;;;;15.57;93.13086;935.6133;;;;
2021/08/08 04:22:01;;;;;;;0.3;0.3;;;;;;;15.44;93.10352;935.6167;;;;
2021/08/08 04:24:25;;;;;;;0.4;0.4;;;;;;;15.52;93.54785;935.6855;;;;
2021/08/08 04:26:50;;;;;;;0.4;0.4;;;;;;;15.55;93.33691;935.6577;;;;
2021/08/08 04:29:15;;;;;;;1;0.5;;;;;;;15.49;94.1543;935.6289;;;;
2021/08/08 04:31:40;;;;;;;0.7;0.7;;;;;;;15.52;93.31934;935.6622;;;;
2021/08/08 04:34:09;;;;;;;1;0.6;;;;;;;15.4;93.93848;935.6498;;;;
2021/08/08 04:36:35;;;;;;;0.5;0.5;;;;;;;15.28;94.45605;935.6209;;;;
2021/08/08 04:39:00;;;;;;;0.6;0.6;;;;;;;15.27;94.2002;935.6434;;;;
2021/08/08 04:41:25;;;;;;;0.6;0.5;;;;;;;15.31;94.04883;935.7087;;;;
2021/08/08 04:43:53;;;;;;;1.4;0.7;;;;;;;15.39;94.15625;935.8176;;;;
2021/08/08 04:46:18;;;;;;;1.5;0.8;;;;;;;15.44;94.13379;935.8165;;;;
2021/08/08 04:48:43;;;;;;;0.6;0.6;;;;;;;15.37;93.40234;935.7874;;;;
2021/08/08 04:51:08;;;;;;;1;0.7;;;;;;;15.42;93.5498;935.8192;;;;
2021/08/08 04:53:35;;;;;;;0.8;0.6;;;;;;;15.49;93.84277;935.7894;;;;
2021/08/08 04:56:00;;;;;;;0.5;0.5;;;;;;;15.56;93.92773;935.8028;;;;
2021/08/08 04:58:26;;;;;;;0.7;0.6;;;;;;;15.56;93.64844;935.8036;;;;
2021/08/08 05:00:51;;;;;;;0.6;0.6;;;;;;;15.58;93.30566;935.8267;;;;
2021/08/08 05:03:17;;;;;;;0.5;0.5;;;;;;;15.5;93.52148;935.8205;;;;
2021/08/08 05:05:42;;;;;;;1.5;0.9;;;;;;;15.53;93.91992;935.67;;;;
2021/08/08 05:08:08;;;;;;;5;4.5;;;;;;;15.63;93.70996;935.78;;;;
2021/08/08 05:10:33;;;;;;;1.2;1.1;;;;;;;15.66;93.77539;935.7867;;;;
2021/08/08 05:13:01;;;;;;;0.9;0.7;;;;;;;15.58;94.10254;935.8524;;;;
2021/08/08 05:15:28;;;;;;;1.9;0.8;;;;;;;15.64;94.52051;935.8699;;;;
2021/08/08 05:17:53;;;;;;;0.6;0.6;;;;;;;15.43;93.75977;935.9281;;;;
2021/08/08 05:20:21;;;;;;;0.7;0.7;;;;;;;15.36;94.58691;935.8847;;;;
2021/08/08 05:22:46;;;;;;;0.8;0.6;;;;;;;15.44;94.59375;935.9064;;;;
2021/08/08 05:25:12;;;;;;;0.7;0.7;;;;;;;15.34;94.49316;935.8937;;;;
2021/08/08 05:27:37;;;;;;;1.7;1;;;;;;;15.36;95.48926;935.9881;;;;
2021/08/08 05:30:03;;;;;;;1.4;0.9;;;;;;;15.43;94.25684;935.9611;;;;
2021/08/08 05:32:28;;;;;;;0.9;0.8;;;;;;;15.48;94.92676;936.0302;;;;
2021/08/08 05:34:56;;;;;;;2;1.1;;;;;;;15.57;94.36816;936.0057;;;;
2021/08/08 05:37:22;;;;;;;0.9;0.9;;;;;;;15.62;93.99707;935.9825;;;;
2021/08/08 05:39:47;;;;;;;1.2;1;;;;;;;15.7;92.97461;935.9348;;;;
2021/08/08 05:42:12;;;;;;;1.3;0.9;;;;;;;15.77;93.13867;935.8414;;;;
2021/08/08 05:44:39;;;;;;;0.6;0.6;;;;;;;15.89;91.57227;935.8704;;;;
2021/08/08 05:47:03;;;;;;;0.8;0.8;;;;;;;16.01;92.33496;935.9867;;;;
2021/08/08 05:49:30;;;;;;;0.8;0.7;;;;;;;15.89;91.67383;935.9099;;;;
2021/08/08 05:51:55;;;;;;;0.6;0.5;;;;;;;15.86;91.5293;935.9416;;;;
2021/08/08 05:54:21;;;;;;;0.4;0.4;;;;;;;15.88;91.37207;935.9991;;;;
2021/08/08 05:56:46;;;;;;;0.9;0.4;;;;;;;15.87;91.30078;936.049;;;;
2021/08/08 05:59:12;;;;;;;0.5;0.5;;;;;;;15.94;91.62598;935.9991;;;;
2021/08/08 06:01:37;;;;;;;0.5;0.5;;;;;;;15.88;90.99023;936.0047;;;;
2021/08/08 06:04:03;;;;;;;0.7;0.7;;;;;;;16.05;91.08203;935.9841;;;;
2021/08/08 06:06:28;;;;;;;0.8;0.8;;;;;;;16.15;91.26465;936.046;;;;
2021/08/08 06:08:54;;;;;;;0.5;0.5;;;;;;;16.18;90.12891;936.0133;;;;
2021/08/08 06:11:19;;;;;;;0.8;0.7;;;;;;;16.32;90.39746;936.0027;;;;
2021/08/08 06:13:47;;;;;;;0.8;0.8;;;;;;;16.37;89.81836;936.0419;;;;
2021/08/08 06:16:18;;;;;;;1.2;0.7;;;;;;;16.46;89.83887;936.0687;;;;
2021/08/08 06:18:47;;;;;;;1.3;0.9;;;;;;;16.52;89.84961;936.0325;;;;
2021/08/08 06:21:12;;;;;;;1.2;0.7;;;;;;;16.64;89.85059;936.0162;;;;
2021/08/08 06:23:38;;;;;;;1;0.7;;;;;;;16.8;89.49023;936.0394;;;;
2021/08/08 06:26:03;;;;;;;0.7;0.7;;;;;;;16.94;89.49707;936.0781;;;;
2021/08/08 06:28:29;;;;;;;0.9;0.7;;;;;;;17.1;88.5791;936.0995;;;;
2021/08/08 06:30:54;;;;;;;0.6;0.6;;;;;;;17.19;87.99316;936.1155;;;;
2021/08/08 06:33:21;;;;;;;0.5;0.4;;;;;;;17.27;85.29395;936.1755;;;;
2021/08/08 06:35:46;;;;;;;0.3;0.3;;;;;;;17.23;82.96973;936.1528;;;;
2021/08/08 06:38:14;;;;;;;0.4;0.4;;;;;;;17.25;84.67773;936.1629;;;;
2021/08/08 06:40:39;;;;;;;1;0.5;;;;;;;17.34;84.89063;936.1041;;;;
2021/08/08 06:43:04;;;;;;;1.1;0.4;;;;;;;17.33;85.05273;936.1019;;;;
2021/08/08 06:45:29;;;;;;;0.4;0.4;;;;;;;17.33;84.28809;936.1074;;;;
2021/08/08 06:47:56;;;;;;;0.4;0.4;;;;;;;17.41;83.13184;936.0761;;;;
2021/08/08 06:50:21;;;;;;;1.5;0.5;;;;;;;17.49;83.12402;936.0988;;;;
2021/08/08 06:52:47;;;;;;;0.5;0.5;;;;;;;17.73;83.2959;936.1426;;;;
2021/08/08 06:55:13;;;;;;;1.4;0.8;;;;;;;17.86;83.23828;936.1184;;;;
2021/08/08 06:57:39;;;;;;;0.9;0.5;;;;;;;17.94;82.56934;936.1553;;;;
2021/08/08 07:00:04;;;;;;;0.4;0.4;;;;;;;17.87;82.74121;936.0627;;;;
2021/08/08 07:02:31;;;;;;;0.7;0.5;;;;;;;17.98;82.62402;936.1738;;;;
2021/08/08 07:04:56;;;;;;;0.4;0.4;;;;;;;18;80.53516;936.2;;;;
2021/08/08 07:07:21;;;;;;;0.6;0.4;;;;;;;18.09;81.01758;936.1619;;;;
2021/08/08 07:09:46;;;;;;;0.4;0.4;;;;;;;18.12;82.7998;936.1758;;;;
2021/08/08 07:12:11;;;;;;;0.8;0.4;;;;;;;18.18;81.65039;936.15;;;;
2021/08/08 07:14:36;;;;;;;0.5;0.4;;;;;;;18.22;81.03125;936.0922;;;;
2021/08/08 07:17:02;;;;;;;0.3;0.3;;;;;;;18.17;81.19531;936.118;;;;
2021/08/08 07:19:28;;;;;;;0.6;0.4;;;;;;;18.16;80.64746;936.1199;;;;
2021/08/08 07:21:53;;;;;;;0.6;0.5;;;;;;;18.18;80.76758;936.1702;;;;
2021/08/08 07:24:20;;;;;;;0.2;0.2;;;;;;;18.5;79.08301;936.1213;;;;
2021/08/08 07:26:45;;;;;;;0.4;0.4;;;;;;;18.39;82.20215;936.151;;;;
2021/08/08 07:29:11;;;;;;;0.3;0.2;;;;;;;18.16;81.66797;936.0281;;;;
2021/08/08 07:31:37;;;;;;;0.4;0.4;;;;;;;18.26;82.74414;936.0761;;;;
2021/08/08 07:34:02;;;;;;;0.4;0.3;;;;;;;18.58;79.56055;936.0959;;;;
2021/08/08 07:36:28;;;;;;;0.3;0.3;;;;;;;18.83;77.70996;936.0945;;;;
2021/08/08 07:38:54;;;;;;;0.4;0.4;;;;;;;18.78;76.91016;936.0697;;;;
2021/08/08 07:41:19;;;;;;;0.6;0.6;;;;;;;18.88;75.78613;935.9885;;;;
2021/08/08 07:43:47;;;;;;;0.5;0.5;;;;;;;18.68;76.49609;935.9844;;;;
2021/08/08 07:46:12;;;;;;;0.9;0.7;;;;;;;18.88;77.55664;936.0076;;;;
2021/08/08 07:48:40;;;;;;;0.5;0.5;;;;;;;19.02;78.34863;936.0535;;;;
2021/08/08 07:51:05;;;;;;;1.4;0.5;;;;;;;18.99;75.71289;935.9692;;;;
2021/08/08 07:53:31;;;;;;;0.4;0.4;;;;;;;19.13;75.45605;936.0142;;;;
2021/08/08 07:55:56;;;;;;;0.4;0.4;;;;;;;19.29;76.64941;936.0094;;;;
2021/08/08 07:58:23;;;;;;;0.5;0.5;;;;;;;19.54;76.32031;936.0223;;;;
2021/08/08 08:00:48;;;;;;;1;0.5;;;;;;;19.92;73.53906;936.0901;;;;
2021/08/08 08:03:21;;;;;;;0.3;0.3;;;;;;;20.57;68.57617;936.1027;;;;
2021/08/08 08:05:46;;;;;;;0.2;0.2;;;;;;;22.7;62.41504;936.0974;;;;
2021/08/08 08:08:11;;;;;;;0.3;0.3;;;;;;;24.57;52.09277;936.0245;;;;
2021/08/08 08:10:36;;;;;;;0.4;0.4;;;;;;;25.29;49.79102;936.0579;;;;
2021/08/08 08:13:01;;;;;;;0.2;0.2;;;;;;;24.4;54.27441;936.0106;;;;
2021/08/08 08:15:34;;;;;;;0.8;0.2;;;;;;;23.02;57.80664;935.9761;;;;
2021/08/08 08:17:59;;;;;;;0.5;0.2;;;;;;;22.48;59.50977;935.9556;;;;
2021/08/08 08:20:37;;;;;;;0.4;0.3;;;;;;;22.48;61.21094;936.0067;;;;
2021/08/08 08:23:03;;;;;;;0.8;0.3;;;;;;;22.12;63.16602;936.0031;;;;
2021/08/08 08:25:29;;;;;;;0.9;0.3;;;;;;;22.06;61.58594;936.0268;;;;
2021/08/08 08:27:55;;;;;;;0.8;0.3;;;;;;;21.63;62.38184;936.0316;;;;
2021/08/08 08:30:21;;;;;;;0.4;0.3;;;;;;;21.55;61.41211;936.0413;;;;
2021/08/08 08:32:49;;;;;;;0.3;0.3;;;;;;;21.46;62.62695;936.0334;;;;
2021/08/08 08:35:14;;;;;;;0.7;0.2;;;;;;;20.85;65.00684;936.0544;;;;
2021/08/08 08:37:41;;;;;;;0.2;0.2;;;;;;;20.2;70.57422;936.0471;;;;
2021/08/08 08:40:06;;;;;;;0.5;0.5;;;;;;;19.68;69.18457;936.0687;;;;
2021/08/08 08:42:33;;;;;;;0.5;0.3;;;;;;;19.16;73.05176;936.0779;;;;
2021/08/08 08:44:58;;;;;;;0.6;0.3;;;;;;;19.42;73.59473;936.1092;;;;
2021/08/08 08:47:24;;;;;;;0.4;0.4;;;;;;;19.41;73.31543;936.1512;;;;
2021/08/08 08:49:49;;;;;;;1.2;0.2;;;;;;;19.48;70.68066;936.1191;;;;
2021/08/08 08:52:15;;;;;;;0.3;0.2;;;;;;;19.45;73.5293;936.2184;;;;
2021/08/08 08:54:44;;;;;;;1.7;0.7;;;;;;;19.35;72.82617;936.1556;;;;
2021/08/08 08:57:09;;;;;;;1;0.7;;;;;;;19.26;74.16211;936.1322;;;;
2021/08/08 08:59:34;;;;;;;1.5;0.8;;;;;;;19.43;74.22559;936.1423;;;;
2021/08/08 09:01:59;;;;;;;0.2;0.2;;;;;;;19.42;73.22168;936.111;;;;
2021/08/08 09:04:25;;;;;;;0.4;0.4;;;;;;;18.87;72.96777;936.1484;;;;
2021/08/08 09:06:50;;;;;;;0.4;0.4;;;;;;;18.94;75.44727;936.1158;;;;
2021/08/08 09:09:17;;;;;;;1;0.2;;;;;;;19.13;75.52637;936.0442;;;;
2021/08/08 09:11:42;;;;;;;0.7;0.4;;;;;;;19;76.16699;936.1281;;;;
2021/08/08 09:14:09;;;;;;;0.3;0.3;;;;;;;18.93;76.80762;936.1146;;;;
2021/08/08 09:16:36;;;;;;;0.4;0.4;;;;;;;19.1;75.56836;936.1716;;;;
2021/08/08 09:19:01;;;;;;;0.9;0.5;;;;;;;19.03;76.84863;936.1833;;;;
2021/08/08 09:21:26;;;;;;;0.9;0.4;;;;;;;18.62;76.61426;936.1298;;;;
2021/08/08 09:23:51;;;;;;;0.5;0.4;;;;;;;18.59;78.08496;936.1473;;;;
2021/08/08 09:26:20;;;;;;;0.6;0.5;;;;;;;18.3;76.19727;936.1767;;;;
2021/08/08 09:28:45;;;;;;;1.7;0.5;;;;;;;18.32;76.77148;936.1713;;;;
2021/08/08 09:31:13;;;;;;;1;0.4;;;;;;;18.11;77.21094;936.188;;;;
2021/08/08 09:33:38;;;;;;;0.5;0.4;;;;;;;18.15;75.91602;936.188;;;;
2021/08/08 09:36:05;;;;;;;0.5;0.4;;;;;;;18.57;77.07031;936.2681;;;;
2021/08/08 09:38:30;;;;;;;0.6;0.5;;;;;;;18.38;78.17676;936.299;;;;
2021/08/08 09:40:55;;;;;;;1.2;0.5;;;;;;;18.34;78.19141;936.3215;;;;
2021/08/08 09:43:22;;;;;;;0.8;0.5;;;;;;;18.64;78.02539;936.3668;;;;
2021/08/08 09:45:47;;;;;;;1.9;0.6;;;;;;;18.75;77.41602;936.3973;;;;
2021/08/08 09:48:13;;;;;;;0.6;0.5;;;;;;;18.82;76.79883;936.3689;;;;
2021/08/08 09:50:38;;;;;;;0.4;0.4;;;;;;;19.05;75.72168;936.3158;;;;
2021/08/08 09:53:04;;;;;;;0.4;0.3;;;;;;;19.31;74.33398;936.31;;;;
2021/08/08 09:55:31;;;;;;;0.9;0.5;;;;;;;19.43;75.16992;936.3078;;;;
2021/08/08 09:57:56;;;;;;;0.4;0.4;;;;;;;19.37;74.4248;936.2842;;;;
2021/08/08 10:00:21;;;;;;;0.6;0.4;;;;;;;19.38;75.05566;936.2896;;;;
2021/08/08 10:02:48;;;;;;;0.3;0.3;;;;;;;19.27;71.81152;936.2135;;;;
2021/08/08 10:05:13;;;;;;;0.9;0.3;;;;;;;19.11;71.29688;936.1917;;;;
2021/08/08 10:07:38;;;;;;;0.7;0.4;;;;;;;19.22;71.26758;936.2428;;;;
2021/08/08 10:10:03;;;;;;;0.6;0.4;;;;;;;19.17;73.06348;936.2805;;;;
2021/08/08 10:12:32;;;;;;;1;0.6;;;;;;;18.98;73.7793;936.3262;;;;
2021/08/08 10:14:57;;;;;;;0.8;0.5;;;;;;;19.02;74.22559;936.2899;;;;
2021/08/08 10:17:22;;;;;;;0.9;0.6;;;;;;;19.03;74.91602;936.3592;;;;
2021/08/08 10:19:50;;;;;;;0.9;0.5;;;;;;;18.97;76.2207;936.3862;;;;
2021/08/08 10:22:15;;;;;;;0.7;0.5;;;;;;;18.9;76.47656;936.3437;;;;
2021/08/08 10:24:42;;;;;;;0.5;0.5;;;;;;;19.13;76.39941;936.3694;;;;
2021/08/08 10:27:08;;;;;;;0.7;0.6;;;;;;;18.99;76.92188;936.3736;;;;
2021/08/08 10:29:34;;;;;;;1.4;0.7;;;;;;;18.79;78.0752;936.3832;;;;
2021/08/08 10:31:59;;;;;;;0.6;0.5;;;;;;;19.08;77.69434;936.2805;;;;
2021/08/08 10:34:25;;;;;;;1.1;0.7;;;;;;;19.2;76.28223;936.1845;;;;
2021/08/08 10:36:50;;;;;;;0.6;0.6;;;;;;;19.32;76.1875;936.2315;;;;
2021/08/08 10:39:16;;;;;;;1;0.7;;;;;;;19.37;77.08301;936.2285;;;;
2021/08/08 10:41:43;;;;;;;2.6;0.7;;;;;;;19.56;74.56348;936.1703;;;;
2021/08/08 10:44:08;;;;;;;1.3;0.7;;;;;;;19.55;74.72461;936.1942;;;;
2021/08/08 10:46:34;;;;;;;1.4;0.7;;;;;;;19.82;75.00391;936.2278;;;;
2021/08/08 10:48:59;;;;;;;0.4;0.4;;;;;;;19.97;72.40234;936.1939;;;;
2021/08/08 10:51:25;;;;;;;0.4;0.4;;;;;;;19.92;71.72949;936.1573;;;;
2021/08/08 10:53:50;;;;;;;0.9;0.7;;;;;;;20.21;72.39648;936.1689;;;;
2021/08/08 10:56:17;;;;;;;1;0.5;;;;;;;20.35;70.97266;936.2108;;;;
2021/08/08 10:58:44;;;;;;;1.1;0.7;;;;;;;20.28;72.35059;936.1646;;;;
2021/08/08 11:01:12;;;;;;;0.7;0.5;;;;;;;20.28;71.00781;936.2519;;;;
2021/08/08 11:03:41;;;;;;;0.9;0.4;;;;;;;19.99;67.56348;936.1884;;;;
2021/08/08 11:06:06;;;;;;;1.1;0.5;;;;;;;19.94;69.95898;936.2012;;;;
2021/08/08 11:08:33;;;;;;;0.7;0.4;;;;;;;20.13;63.51367;936.1923;;;;
2021/08/08 11:10:58;;;;;;;1.9;0.7;;;;;;;20.04;70.29199;936.2194;;;;
2021/08/08 11:13:26;;;;;;;0.4;0.4;;;;;;;20.04;68.9248;936.2186;;;;
2021/08/08 11:15:59;;;;;;;0.3;0.3;;;;;;;20.28;67.49219;936.1258;;;;
2021/08/08 11:18:24;;;;;;;0.7;0.5;;;;;;;20.08;67.15918;936.1097;;;;
2021/08/08 11:20:49;;;;;;;0.7;0.4;;;;;;;20.33;65.97168;936.1483;;;;
2021/08/08 11:23:18;;;;;;;0.5;0.4;;;;;;;20.67;63.04199;936.178;;;;
2021/08/08 11:25:49;;;;;;;0.7;0.7;;;;;;;20.89;59.81152;936.2213;;;;
2021/08/08 11:28:20;;;;;;;0.7;0.4;;;;;;;21.09;59.53418;936.2739;;;;
2021/08/08 11:30:45;;;;;;;1.3;0.7;;;;;;;21.17;60.62012;936.2478;;;;
2021/08/08 11:33:14;;;;;;;0.8;0.5;;;;;;;21.17;61.58008;936.2596;;;;
2021/08/08 11:35:40;;;;;;;0.5;0.5;;;;;;;21.2;58.97559;936.2758;;;;
2021/08/08 11:38:05;;;;;;;0.3;0.3;;;;;;;20.85;58.94043;936.3303;;;;
2021/08/08 11:40:32;;;;;;;0.7;0.4;;;;;;;21.08;59.81348;936.3308;;;;
2021/08/08 11:42:58;;;;;;;0.9;0.4;;;;;;;20.79;63.15234;936.3723;;;;
2021/08/08 11:45:23;;;;;;;1.2;0.5;;;;;;;20.26;64.04492;936.3884;;;;
2021/08/08 11:47:50;;;;;;;0.4;0.4;;;;;;;20.26;64.49023;936.4264;;;;
2021/08/08 11:50:16;;;;;;;0.4;0.4;;;;;;;20.14;66.81641;936.4719;;;;
2021/08/08 11:52:41;;;;;;;1.2;0.4;;;;;;;20.33;63.40234;936.4542;;;;
2021/08/08 11:55:07;;;;;;;0.6;0.6;;;;;;;20.09;63.54199;936.4411;;;;
2021/08/08 11:57:34;;;;;;;0.9;0.6;;;;;;;19.98;66.6416;936.3947;;;;
2021/08/08 11:59:59;;;;;;;0.5;0.4;;;;;;;19.84;66.53809;936.4061;;;;
2021/08/08 12:02:29;;;;;;;0.9;0.4;;;;;;;19.85;66.72754;936.4202;;;;
2021/08/08 12:04:52;;;;;;;1.3;0.4;;;;;;;19.96;64.66699;936.3848;;;;
2021/08/08 12:07:17;;;;;;;1;0.7;;;;;;;19.97;65.14844;936.4208;;;;
2021/08/08 12:09:42;;;;;;;3.2;0.6;;;;;;;19.77;65.19922;936.4927;;;;
2021/08/08 12:12:10;;;;;;;1.2;0.3;;;;;;;19.72;64.66602;936.4844;;;;
2021/08/08 12:14:35;;;;;;;0.8;0.6;;;;;;;19.48;66.7998;936.5115;;;;
2021/08/08 12:17:01;;;;;;;1.5;0.4;;;;;;;19.36;64.89355;936.5187;;;;
2021/08/08 12:19:26;;;;;;;2;0.5;;;;;;;19.48;64.5957;936.4899;;;;
2021/08/08 12:21:55;;;;;;;0.8;0.4;;;;;;;19.5;64.4248;936.5675;;;;
2021/08/08 12:24:20;;;;;;;0.4;0.4;;;;;;;19.5;64.85645;936.5725;;;;
2021/08/08 12:26:46;;;;;;;0.4;0.4;;;;;;;19.44;65.55859;936.5167;;;;
2021/08/08 12:29:10;;;;;;;2.7;0.5;;;;;;;19.63;63.7793;936.5977;;;;
2021/08/08 12:31:35;;;;;;;1.4;0.4;;;;;;;19.54;64.2666;936.5967;;;;
2021/08/08 12:34:00;;;;;;;0.7;0.3;;;;;;;19.36;62.99414;936.5687;;;;
2021/08/08 12:36:28;;;;;;;1.3;0.5;;;;;;;19.44;63.00684;936.5457;;;;
2021/08/08 12:38:53;;;;;;;1;0.6;;;;;;;19.13;67.04883;936.5776;;;;
2021/08/08 12:41:19;;;;;;;0.5;0.5;;;;;;;19.22;68.29785;936.577;;;;
2021/08/08 12:43:45;;;;;;;0.5;0.5;;;;;;;19.14;65.65332;936.5726;;;;
2021/08/08 12:46:12;;;;;;;0.6;0.5;;;;;;;19.47;64.61914;936.5134;;;;
2021/08/08 12:48:38;;;;;;;0.7;0.4;;;;;;;19.65;66.25391;936.6125;;;;
2021/08/08 12:51:06;;;;;;;0.5;0.4;;;;;;;19.75;65.45313;936.5796;;;;
2021/08/08 12:53:31;;;;;;;0.4;0.3;;;;;;;19.76;64.85938;936.5503;;;;
2021/08/08 12:55:58;;;;;;;0.8;0.4;;;;;;;19.52;64.2998;936.5736;;;;
2021/08/08 12:58:22;;;;;;;0.6;0.6;;;;;;;19.58;67.30273;936.5269;;;;
2021/08/08 13:00:48;;;;;;;0.8;0.5;;;;;;;19.34;71.18262;936.5554;;;;
2021/08/08 13:03:13;;;;;;;0.5;0.3;;;;;;;19.47;67.27637;936.5636;;;;
2021/08/08 13:05:40;;;;;;;1.1;0.4;;;;;;;19.62;66.66992;936.6089;;;;
2021/08/08 13:08:05;;;;;;;1.5;0.5;;;;;;;19.48;69.23438;936.6223;;;;
2021/08/08 13:10:32;;;;;;;1;0.6;;;;;;;19.63;68.74512;936.6517;;;;
2021/08/08 13:12:57;;;;;;;3.2;1.1;;;;;;;19.64;68.38477;936.6597;;;;
2021/08/08 13:15:24;;;;;;;1.4;0.6;;;;;;;19.65;67.83984;936.6261;;;;
2021/08/08 13:17:49;;;;;;;0.8;0.5;;;;;;;19.56;66.13574;936.6105;;;;
2021/08/08 13:20:20;;;;;;;1.6;0.7;;;;;;;19.44;68.0293;936.6676;;;;
2021/08/08 13:22:49;;;;;;;1.3;0.4;;;;;;;19.52;66.49219;936.7195;;;;
2021/08/08 13:25:15;;;;;;;2.5;0.5;;;;;;;19.59;65.37109;936.685;;;;
2021/08/08 13:27:42;;;;;;;1.7;0.7;;;;;;;19.51;65.5918;936.795;;;;
2021/08/08 13:30:07;;;;;;;0.4;0.4;;;;;;;19.35;66.0918;936.8557;;;;
2021/08/08 13:32:34;;;;;;;0.9;0.6;;;;;;;19.25;65.79785;936.868;;;;
2021/08/08 13:34:59;;;;;;;1.4;0.7;;;;;;;19.33;66.14746;936.9626;;;;
2021/08/08 13:37:24;;;;;;;0.5;0.5;;;;;;;19.22;66.45703;936.9727;;;;
2021/08/08 13:39:50;;;;;;;0.4;0.4;;;;;;;18.96;66.87305;937.0239;;;;
2021/08/08 13:42:15;;;;;;;1.1;0.5;;;;;;;19.12;66.82617;937.0526;;;;
2021/08/08 13:44:42;;;;;;;0.7;0.5;;;;;;;19.09;67.89355;937.0105;;;;
2021/08/08 13:47:07;;;;;;;1.1;0.7;;;;;;;19.02;68.83691;937.0817;;;;
2021/08/08 13:49:37;;;;;;;0.8;0.6;;;;;;;18.92;71.125;937.1252;;;;
2021/08/08 13:52:02;;;;;;;1.9;0.4;;;;;;;18.96;71.0752;937.1595;;;;
2021/08/08 13:54:28;;;;;;;0.9;0.5;;;;;;;18.95;69.1748;937.243;;;;
2021/08/08 13:56:54;;;;;;;1.9;0.6;;;;;;;18.43;70.53418;937.3195;;;;
2021/08/08 13:59:21;;;;;;;0.8;0.5;;;;;;;18.34;71.61426;937.3535;;;;
2021/08/08 14:01:46;;;;;;;0.8;0.5;;;;;;;18.44;70.67676;937.3814;;;;
2021/08/08 14:04:11;;;;;;;1.1;0.9;;;;;;;18.34;71.02148;937.3205;;;;
2021/08/08 14:06:36;;;;;;;0.8;0.6;;;;;;;18.07;71.69824;937.4106;;;;
2021/08/08 14:09:04;;;;;;;1.5;0.7;;;;;;;18.12;71.05469;937.3572;;;;
2021/08/08 14:11:29;;;;;;;0.6;0.4;;;;;;;18.24;70.41113;937.4041;;;;
2021/08/08 14:13:56;;;;;;;0.4;0.4;;;;;;;18.06;71.05762;937.447;;;;
2021/08/08 14:16:21;;;;;;;1.1;0.6;;;;;;;18.03;69.27441;937.4959;;;;